createdAt,value
2022-09-10T00:02:03.339Z,27.98
2022-09-10T00:04:52.011Z,28.00
2022-09-10T00:07:40.450Z,28.02
2022-09-10T00:10:28.863Z,28.01
2022-09-10T00:13:21.494Z,27.99
2022-09-10T00:16:12.198Z,27.99
2022-09-10T00:19:02.058Z,27.98
2022-09-10T00:21:51.508Z,27.97
2022-09-10T00:24:39.908Z,27.95
2022-09-10T00:27:29.601Z,27.97
2022-09-10T00:30:22.548Z,27.96
2022-09-10T00:33:11.547Z,27.98
2022-09-10T00:35:59.963Z,27.97
2022-09-10T00:38:48.543Z,27.98
2022-09-10T00:41:38.564Z,27.98
2022-09-10T00:45:02.902Z,28.02
2022-09-10T00:47:53.885Z,28.01
2022-09-10T00:50:43.963Z,28.00
2022-09-10T00:53:32.661Z,27.98
2022-09-10T00:56:21.386Z,27.97
2022-09-10T00:59:10.909Z,27.98
2022-09-10T01:02:00.166Z,27.98
2022-09-10T01:04:50.794Z,27.97
2022-09-10T01:07:40.292Z,27.99
2022-09-10T01:10:31.498Z,27.99
2022-09-10T01:13:27.119Z,27.99
2022-09-10T01:16:22.350Z,27.98
2022-09-10T01:19:24.345Z,27.99
2022-09-10T01:22:22.605Z,27.99
2022-09-10T01:25:20.628Z,28.00
2022-09-10T01:28:12.682Z,27.96
2022-09-10T01:31:06.259Z,27.97
2022-09-10T01:34:02.143Z,27.99
2022-09-10T01:36:51.974Z,27.99
2022-09-10T01:39:41.230Z,27.98
2022-09-10T01:42:31.634Z,27.97
2022-09-10T01:45:21.619Z,27.96
2022-09-10T01:48:29.172Z,27.97
2022-09-10T01:51:24.576Z,27.98
2022-09-10T01:54:25.354Z,27.98
2022-09-10T01:57:24.436Z,27.99
2022-09-10T02:00:15.104Z,27.97
2022-09-10T02:03:08.733Z,27.97
2022-09-10T02:05:57.982Z,27.99
2022-09-10T02:08:50.661Z,27.99
2022-09-10T02:11:47.318Z,28.01
2022-09-10T02:14:36.014Z,27.97
2022-09-10T02:17:26.754Z,27.96
2022-09-10T02:20:17.074Z,27.99
2022-09-10T02:23:07.320Z,27.98
2022-09-10T02:25:55.999Z,27.97
2022-09-10T02:28:45.272Z,27.96
2022-09-10T02:31:33.841Z,27.99
2022-09-10T02:34:22.349Z,27.98
2022-09-10T02:37:12.176Z,27.97
2022-09-10T02:40:01.081Z,27.97
2022-09-10T02:42:49.862Z,27.98
2022-09-10T02:45:41.076Z,27.97
2022-09-10T02:48:31.117Z,27.97
2022-09-10T02:51:19.752Z,27.96
2022-09-10T02:54:09.792Z,27.95
2022-09-10T02:57:00.201Z,27.96
2022-09-10T02:59:48.847Z,27.95
2022-09-10T03:02:37.784Z,27.96
2022-09-10T03:05:26.266Z,27.96
2022-09-10T03:08:14.801Z,27.96
2022-09-10T03:11:04.948Z,27.97
2022-09-10T03:13:55.800Z,27.97
2022-09-10T03:16:44.212Z,27.97
2022-09-10T03:19:32.709Z,27.95
2022-09-10T03:22:21.166Z,27.98
2022-09-10T03:25:09.808Z,27.98
2022-09-10T03:27:59.850Z,27.97
2022-09-10T03:30:48.243Z,27.97
2022-09-10T03:33:37.428Z,27.98
2022-09-10T03:36:29.352Z,27.96
2022-09-10T03:39:18.892Z,27.97
2022-09-10T03:42:07.527Z,27.96
2022-09-10T03:44:57.455Z,27.98
2022-09-10T03:47:46.071Z,27.95
2022-09-10T03:50:35.077Z,27.95
2022-09-10T03:53:23.882Z,27.96
2022-09-10T03:56:13.904Z,27.97
2022-09-10T03:59:02.474Z,27.96
2022-09-10T04:01:52.236Z,27.97
2022-09-10T04:04:41.002Z,27.95
2022-09-10T04:07:30.279Z,27.95
2022-09-10T04:10:20.363Z,27.96
2022-09-10T04:13:09.264Z,27.96
2022-09-10T04:15:58.213Z,27.95
2022-09-10T04:18:48.074Z,27.95
2022-09-10T04:21:36.561Z,27.93
2022-09-10T04:24:25.085Z,27.95
2022-09-10T04:27:14.807Z,27.93
2022-09-10T04:30:03.483Z,27.94
2022-09-10T04:32:54.762Z,27.93
2022-09-10T04:35:45.339Z,27.92
2022-09-10T04:38:34.875Z,27.91
2022-09-10T04:41:25.975Z,27.92
2022-09-10T04:44:14.579Z,27.94
2022-09-10T04:47:03.043Z,27.94
2022-09-10T04:49:51.482Z,27.95
2022-09-10T04:52:43.155Z,27.94
2022-09-10T04:55:31.916Z,27.94
2022-09-10T04:58:21.239Z,27.96
2022-09-10T05:01:09.764Z,27.94
2022-09-10T05:03:59.524Z,27.94
2022-09-10T05:06:50.365Z,27.94
2022-09-10T05:09:41.275Z,27.94
2022-09-10T05:12:29.665Z,27.93
2022-09-10T05:15:18.336Z,27.94
2022-09-10T05:18:07.611Z,27.94
2022-09-10T05:20:56.126Z,27.92
2022-09-10T05:23:45.088Z,27.95
2022-09-10T05:26:34.899Z,27.96
2022-09-10T05:29:23.367Z,27.99
2022-09-10T05:32:11.765Z,27.97
2022-09-10T05:35:00.208Z,27.99
2022-09-10T05:37:48.652Z,28.02
2022-09-10T05:40:37.308Z,28.01
2022-09-10T05:43:27.449Z,28.02
2022-09-10T05:46:15.859Z,28.01
2022-09-10T05:49:04.303Z,28.01
2022-09-10T05:51:52.823Z,28.01
2022-09-10T05:54:41.331Z,28.00
2022-09-10T05:57:31.149Z,28.01
2022-09-10T06:00:21.135Z,28.02
2022-09-10T06:03:10.302Z,28.00
2022-09-10T06:05:59.106Z,28.01
2022-09-10T06:08:52.277Z,28.01
2022-09-10T06:11:41.799Z,28.02
2022-09-10T06:14:31.103Z,28.02
2022-09-10T06:17:22.665Z,28.02
2022-09-10T06:20:15.658Z,28.01
2022-09-10T06:23:04.114Z,28.03
2022-09-10T06:26:02.012Z,28.04
2022-09-10T06:28:50.720Z,28.06
2022-09-10T06:31:39.133Z,28.04
2022-09-10T06:34:28.937Z,28.04
2022-09-10T06:37:18.600Z,28.06
2022-09-10T06:40:08.802Z,28.07
2022-09-10T06:42:57.210Z,28.07
2022-09-10T06:45:45.691Z,28.08
2022-09-10T06:48:39.414Z,28.09
2022-09-10T06:51:30.877Z,28.08
2022-09-10T06:54:19.836Z,28.09
2022-09-10T06:57:08.446Z,28.10
2022-09-10T06:59:56.886Z,28.11
2022-09-10T07:02:45.334Z,28.11
2022-09-10T07:05:34.199Z,28.11
2022-09-10T07:08:27.646Z,28.11
2022-09-10T07:11:17.556Z,28.12
2022-09-10T07:14:06.027Z,28.14
2022-09-10T07:16:55.550Z,28.15
2022-09-10T07:19:43.939Z,28.17
2022-09-10T07:22:33.028Z,28.15
2022-09-10T07:25:22.929Z,28.16
2022-09-10T07:28:15.221Z,28.14
2022-09-10T07:31:13.600Z,28.18
2022-09-10T07:34:03.083Z,28.18
2022-09-10T07:36:51.729Z,28.20
2022-09-10T07:39:40.212Z,28.19
2022-09-10T07:42:30.101Z,28.21
2022-09-10T07:45:19.683Z,28.22
2022-09-10T07:48:08.142Z,28.23
2022-09-10T07:51:03.407Z,28.22
2022-09-10T07:53:55.150Z,28.21
2022-09-10T07:56:43.500Z,28.21
2022-09-10T07:59:34.794Z,28.23
2022-09-10T08:02:25.765Z,28.23
2022-09-10T08:05:14.530Z,28.24
2022-09-10T08:08:03.336Z,28.23
2022-09-10T08:10:52.171Z,28.25
2022-09-10T08:13:43.009Z,28.26
2022-09-10T08:16:33.070Z,28.26
2022-09-10T08:19:21.519Z,28.26
2022-09-10T08:22:13.499Z,28.26
2022-09-10T08:25:02.310Z,28.27
2022-09-10T08:27:50.771Z,28.26
2022-09-10T08:30:39.662Z,28.28
2022-09-10T08:33:29.840Z,28.29
2022-09-10T08:36:18.869Z,28.31
2022-09-10T08:39:08.507Z,28.31
2022-09-10T08:41:59.307Z,28.31
2022-09-10T08:44:50.192Z,28.32
2022-09-10T08:47:48.247Z,28.32
2022-09-10T08:50:43.482Z,28.34
2022-09-10T08:53:34.970Z,28.35
2022-09-10T08:56:24.957Z,28.36
2022-09-10T08:59:20.289Z,28.36
2022-09-10T09:02:37.897Z,28.37
2022-09-10T09:05:28.214Z,28.36
2022-09-10T09:08:22.086Z,28.39
2022-09-10T09:11:15.090Z,28.39
2022-09-10T09:14:17.045Z,28.38
2022-09-10T09:17:18.939Z,28.37
2022-09-10T09:20:19.351Z,28.37
2022-09-10T09:23:21.396Z,28.41
2022-09-10T09:26:13.635Z,28.40
2022-09-10T09:29:05.383Z,28.45
2022-09-10T09:31:57.641Z,28.08
2022-09-10T09:34:50.494Z,27.87
2022-09-10T09:37:40.590Z,27.84
2022-09-10T09:40:36.800Z,27.74
2022-09-10T09:43:43.749Z,27.58
2022-09-10T09:46:32.853Z,27.50
2022-09-10T09:49:21.526Z,27.47
2022-09-10T09:52:20.699Z,27.53
2022-09-10T09:55:17.302Z,27.60
2022-09-10T09:58:36.143Z,27.67
2022-09-10T10:01:25.493Z,27.73
2022-09-10T10:04:21.569Z,27.79
2022-09-10T10:07:10.130Z,27.86
2022-09-10T10:10:01.066Z,27.90
2022-09-10T10:12:51.289Z,27.95
2022-09-10T10:15:42.797Z,27.97
2022-09-10T10:18:32.726Z,27.97
2022-09-10T10:21:24.400Z,27.98
2022-09-10T10:24:31.802Z,28.00
2022-09-10T10:27:30.004Z,28.00
2022-09-10T10:30:23.915Z,28.03
2022-09-10T10:33:21.113Z,28.06
2022-09-10T10:36:16.743Z,28.08
2022-09-10T10:39:08.931Z,28.11
2022-09-10T10:42:04.416Z,28.13
2022-09-10T10:45:06.371Z,28.14
2022-09-10T10:47:57.136Z,28.14
2022-09-10T10:50:53.206Z,28.15
2022-09-10T10:53:54.721Z,28.13
2022-09-10T10:56:44.490Z,28.11
2022-09-10T10:59:45.151Z,28.14
2022-09-10T11:02:40.028Z,28.11
2022-09-10T11:05:32.107Z,28.09
2022-09-10T11:08:27.165Z,28.08
2022-09-10T11:11:18.899Z,28.07
2022-09-10T11:14:16.248Z,28.10
2022-09-10T11:17:07.617Z,28.10
2022-09-10T11:20:26.714Z,28.11
2022-09-10T11:23:20.552Z,28.17
2022-09-10T11:26:14.541Z,28.18
2022-09-10T11:29:14.369Z,28.24
2022-09-10T11:32:06.406Z,28.10
2022-09-10T11:34:58.957Z,28.09
2022-09-10T11:37:52.975Z,28.09
2022-09-10T11:40:46.479Z,28.03
2022-09-10T11:43:41.263Z,28.05
2022-09-10T11:46:34.310Z,28.12
2022-09-10T11:49:26.400Z,28.18
2022-09-10T11:52:15.144Z,28.15
2022-09-10T11:55:08.393Z,28.19
2022-09-10T11:58:03.353Z,28.20
2022-09-10T12:01:05.625Z,28.11
2022-09-10T12:04:09.135Z,27.96
2022-09-10T12:07:04.302Z,27.93
2022-09-10T12:10:01.577Z,27.93
2022-09-10T12:12:51.263Z,27.93
2022-09-10T12:15:39.888Z,27.93
2022-09-10T12:18:38.712Z,28.07
2022-09-10T12:21:33.583Z,28.05
2022-09-10T12:24:30.935Z,28.22
2022-09-10T12:27:20.782Z,28.26
2022-09-10T12:30:39.370Z,28.27
2022-09-10T12:34:01.261Z,28.22
2022-09-10T12:37:22.557Z,27.78
2022-09-10T12:40:45.781Z,27.58
2022-09-10T12:43:55.945Z,27.44
2022-09-10T12:46:45.061Z,27.36
2022-09-10T12:49:33.753Z,27.28
2022-09-10T12:52:34.338Z,27.32
2022-09-10T12:55:29.103Z,27.25
2022-09-10T12:58:25.946Z,27.25
2022-09-10T13:01:21.605Z,27.33
2022-09-10T13:04:24.547Z,27.54
2022-09-10T13:07:23.556Z,27.71
2022-09-10T13:10:22.338Z,27.86
2022-09-10T13:13:32.879Z,27.97
2022-09-10T13:16:39.004Z,28.11
2022-09-10T13:19:54.398Z,28.11
2022-09-10T13:22:58.545Z,28.08
2022-09-10T13:25:48.991Z,28.06
2022-09-10T13:29:01.388Z,28.39
2022-09-10T13:31:58.397Z,28.11
2022-09-10T13:35:17.018Z,27.93
2022-09-10T13:38:22.648Z,27.83
2022-09-10T13:41:22.074Z,27.94
2022-09-10T13:44:21.210Z,27.88
2022-09-10T13:47:13.025Z,27.84
2022-09-10T13:50:03.003Z,27.82
2022-09-10T13:52:54.990Z,27.78
2022-09-10T13:55:53.539Z,27.75
2022-09-10T13:58:48.448Z,27.71
2022-09-10T14:01:54.864Z,27.71
2022-09-10T14:04:45.215Z,27.71
2022-09-10T14:07:34.879Z,27.77
2022-09-10T14:10:24.242Z,27.77
2022-09-10T14:13:12.751Z,27.78
2022-09-10T14:16:04.513Z,27.76
2022-09-10T14:18:58.604Z,27.74
2022-09-10T14:21:49.331Z,27.74
2022-09-10T14:24:50.325Z,27.68
2022-09-10T14:27:40.438Z,27.67
2022-09-10T14:30:30.793Z,27.62
2022-09-10T14:33:26.317Z,27.70
2022-09-10T14:36:17.250Z,27.75
2022-09-10T14:39:07.923Z,27.92
2022-09-10T14:42:22.986Z,27.88
2022-09-10T14:45:39.260Z,27.94
2022-09-10T14:48:36.997Z,28.16
2022-09-10T14:51:25.975Z,28.09
2022-09-10T14:54:14.910Z,28.25
2022-09-10T14:57:05.228Z,28.25
2022-09-10T14:59:57.235Z,28.20
2022-09-10T15:02:46.234Z,28.28
2022-09-10T15:05:36.074Z,28.22
2022-09-10T15:08:25.659Z,28.27
2022-09-10T15:11:16.237Z,28.24
2022-09-10T15:14:04.693Z,28.29
2022-09-10T15:16:54.062Z,28.34
2022-09-10T15:19:42.679Z,28.32
2022-09-10T15:22:32.705Z,28.32
2022-09-10T15:25:33.870Z,28.34
2022-09-10T15:28:24.604Z,28.34
2022-09-10T15:31:13.204Z,28.28
2022-09-10T15:34:02.916Z,28.25
2022-09-10T15:36:52.940Z,28.27
2022-09-10T15:39:42.686Z,28.25
2022-09-10T15:42:32.023Z,28.20
2022-09-10T15:45:20.427Z,28.28
2022-09-10T15:48:08.825Z,28.19
2022-09-10T15:50:57.230Z,28.16
2022-09-10T15:53:46.318Z,28.13
2022-09-10T15:56:36.691Z,28.12
2022-09-10T15:59:25.159Z,28.08
2022-09-10T16:02:13.914Z,28.06
2022-09-10T16:05:02.327Z,28.04
2022-09-10T16:07:50.695Z,28.06
2022-09-10T16:10:40.429Z,28.06
2022-09-10T16:13:30.179Z,28.14
2022-09-10T16:16:21.166Z,28.13
2022-09-10T16:19:10.561Z,28.07
2022-09-10T16:21:58.945Z,28.16
2022-09-10T16:24:47.395Z,28.17
2022-09-10T16:27:35.923Z,28.17
2022-09-10T16:30:26.274Z,28.17
2022-09-10T16:33:14.804Z,28.24
2022-09-10T16:36:05.661Z,28.23
2022-09-10T16:38:55.221Z,28.18
2022-09-10T16:41:45.211Z,28.20
2022-09-10T16:44:33.931Z,28.15
2022-09-10T16:47:23.759Z,28.11
2022-09-10T16:50:12.298Z,28.09
2022-09-10T16:53:02.597Z,28.11
2022-09-10T16:55:51.440Z,28.13
2022-09-10T16:58:41.304Z,28.10
2022-09-10T17:01:31.142Z,28.09
2022-09-10T17:04:28.208Z,28.06
2022-09-10T17:07:17.249Z,28.10
2022-09-10T17:10:06.332Z,28.09
2022-09-10T17:12:54.733Z,28.11
2022-09-10T17:15:43.325Z,28.08
2022-09-10T17:18:31.779Z,28.12
2022-09-10T17:21:23.080Z,28.17
2022-09-10T17:24:13.150Z,28.14
2022-09-10T17:27:02.580Z,28.04
2022-09-10T17:29:50.962Z,28.01
2022-09-10T17:32:40.157Z,28.03
2022-09-10T17:35:28.730Z,27.89
2022-09-10T17:38:18.563Z,27.83
2022-09-10T17:41:07.273Z,27.95
2022-09-10T17:43:55.763Z,27.88
2022-09-10T17:46:45.010Z,27.82
2022-09-10T17:49:33.445Z,27.88
2022-09-10T17:52:23.600Z,27.91
2022-09-10T17:55:14.853Z,27.92
2022-09-10T17:58:04.733Z,28.02
2022-09-10T18:01:02.069Z,28.08
2022-09-10T18:03:50.480Z,28.02
2022-09-10T18:06:38.946Z,27.84
2022-09-10T18:09:27.422Z,27.70
2022-09-10T18:12:17.157Z,27.63
2022-09-10T18:15:06.329Z,27.54
2022-09-10T18:17:55.177Z,27.56
2022-09-10T18:20:43.554Z,27.54
2022-09-10T18:23:31.939Z,27.44
2022-09-10T18:26:22.781Z,27.41
2022-09-10T18:29:14.394Z,27.37
2022-09-10T18:32:02.985Z,27.37
2022-09-10T18:34:51.399Z,27.33
2022-09-10T18:37:40.253Z,27.30
2022-09-10T18:40:28.628Z,27.30
2022-09-10T18:43:17.145Z,27.29
2022-09-10T18:46:09.991Z,27.49
2022-09-10T18:48:59.123Z,27.61
2022-09-10T18:51:48.153Z,27.68
2022-09-10T18:54:42.520Z,27.70
2022-09-10T18:57:34.826Z,27.70
2022-09-10T19:00:25.595Z,27.75
2022-09-10T19:03:15.394Z,27.82
2022-09-10T19:06:06.327Z,27.84
2022-09-10T19:08:57.446Z,27.80
2022-09-10T19:11:48.653Z,27.89
2022-09-10T19:14:37.947Z,27.82
2022-09-10T19:17:27.425Z,27.83
2022-09-10T19:20:17.477Z,27.77
2022-09-10T19:23:05.974Z,27.80
2022-09-10T19:25:56.226Z,27.81
2022-09-10T19:28:45.150Z,27.81
2022-09-10T19:31:35.709Z,27.80
2022-09-10T19:34:27.968Z,27.86
2022-09-10T19:37:18.201Z,27.89
2022-09-10T19:40:07.399Z,28.05
2022-09-10T19:42:55.837Z,28.20
2022-09-10T19:45:45.827Z,28.14
2022-09-10T19:48:35.377Z,28.10
2022-09-10T19:51:23.960Z,27.97
2022-09-10T19:54:14.445Z,27.75
2022-09-10T19:57:02.890Z,27.52
2022-09-10T19:59:51.330Z,27.50
2022-09-10T20:02:41.240Z,27.46
2022-09-10T20:05:29.841Z,27.32
2022-09-10T20:08:18.182Z,27.30
2022-09-10T20:11:10.602Z,27.24
2022-09-10T20:14:00.535Z,27.25
2022-09-10T20:16:49.044Z,27.24
2022-09-10T20:19:37.449Z,27.20
2022-09-10T20:22:25.811Z,27.28
2022-09-10T20:25:17.060Z,27.22
2022-09-10T20:28:07.089Z,27.16
2022-09-10T20:30:56.406Z,27.18
2022-09-10T20:33:45.246Z,27.12
2022-09-10T20:36:35.074Z,27.07
2022-09-10T20:39:25.139Z,27.05
2022-09-10T20:42:13.968Z,27.00
2022-09-10T20:45:03.749Z,26.98
2022-09-10T20:47:53.007Z,26.99
2022-09-10T20:50:41.516Z,26.93
2022-09-10T20:53:29.910Z,26.93
2022-09-10T20:56:20.156Z,26.89
2022-09-10T20:59:08.815Z,26.94
2022-09-10T21:01:58.547Z,26.92
2022-09-10T21:04:47.002Z,26.91
2022-09-10T21:07:35.667Z,26.92
2022-09-10T21:10:24.077Z,26.97
2022-09-10T21:13:12.620Z,26.98
2022-09-10T21:16:10.475Z,26.97
2022-09-10T21:19:01.424Z,27.03
2022-09-10T21:21:49.870Z,26.96
2022-09-10T21:24:39.698Z,27.02
2022-09-10T21:27:29.294Z,26.94
2022-09-10T21:30:17.905Z,26.89
2022-09-10T21:33:07.133Z,26.84
2022-09-10T21:36:02.807Z,26.86
2022-09-10T21:38:53.377Z,26.83
2022-09-10T21:41:43.986Z,26.81
2022-09-10T21:44:32.441Z,26.80
2022-09-10T21:47:20.973Z,26.84
2022-09-10T21:50:10.140Z,26.78
2022-09-10T21:52:59.895Z,26.80
2022-09-10T21:55:48.337Z,26.82
2022-09-10T21:58:38.398Z,26.80
2022-09-10T22:01:28.245Z,26.83
2022-09-10T22:04:22.169Z,26.87
2022-09-10T22:07:11.377Z,26.88
2022-09-10T22:10:01.159Z,26.81
2022-09-10T22:12:49.555Z,26.79
2022-09-10T22:15:40.347Z,26.78
2022-09-10T22:18:29.737Z,27.07
2022-09-10T22:21:19.394Z,27.13
2022-09-10T22:24:09.317Z,27.22
2022-09-10T22:26:59.329Z,27.33
2022-09-10T22:29:47.924Z,27.42
2022-09-10T22:32:36.621Z,27.49
2022-09-10T22:35:26.619Z,27.53
2022-09-10T22:38:19.148Z,27.59
2022-09-10T22:41:10.132Z,27.56
2022-09-10T22:44:00.185Z,27.63
2022-09-10T22:46:48.817Z,27.70
2022-09-10T22:49:37.402Z,27.72
2022-09-10T22:52:27.878Z,27.77
2022-09-10T22:55:16.585Z,27.81
2022-09-10T22:58:05.022Z,27.96
2022-09-10T23:00:54.870Z,27.72
2022-09-10T23:03:44.688Z,27.60
2022-09-10T23:06:34.299Z,27.58
2022-09-10T23:09:22.796Z,27.51
2022-09-10T23:12:11.278Z,27.49
2022-09-10T23:14:59.801Z,27.44
2022-09-10T23:17:49.661Z,27.41
2022-09-10T23:20:38.437Z,27.41
2022-09-10T23:23:27.557Z,27.39
2022-09-10T23:26:17.259Z,27.42
2022-09-10T23:29:06.057Z,27.40
2022-09-10T23:31:54.600Z,27.39
2022-09-10T23:34:44.646Z,27.37
2022-09-10T23:37:33.971Z,27.34
2022-09-10T23:40:27.918Z,27.33
2022-09-10T23:43:18.484Z,27.33
2022-09-10T23:46:07.461Z,27.31
2022-09-10T23:48:56.736Z,27.30
2022-09-10T23:51:49.053Z,27.25
2022-09-10T23:54:38.699Z,27.23
2022-09-10T23:57:27.150Z,27.25
